Time;durP1;ratioP1;P1;durP2;ratioP2;P2;SDS_P1;SDS_P2;PMS_P1;PMS_P2;Temp;Humidity;BMP_temperature;BMP_pressure;BME280_temperature;BME280_humidity;BME280_pressure;Samples;Min_cycle;Max_cycle;Signal;HPM_P1;HPM_P2
2023/09/11 00:01:54;;;;;;;18.90;11.90;;;;;21.20;100992.00;;;;4915916;29;20243;-72
2023/09/11 00:04:40;;;;;;;18.93;12.03;;;;;21.10;100993.00;;;;4918133;28;20236;-71
2023/09/11 00:07:27;;;;;;;19.30;11.80;;;;;21.10;100987.00;;;;4916132;29;20312;-71
2023/09/11 00:10:13;;;;;;;16.70;11.57;;;;;21.10;100987.00;;;;4926164;29;20248;-71
2023/09/11 00:13:00;;;;;;;18.00;12.50;;;;;21.10;100983.00;;;;4922805;28;20241;-70
2023/09/11 00:15:47;;;;;;;19.00;12.23;;;;;21.10;100978.00;;;;4924030;28;20236;-72
2023/09/11 00:18:34;;;;;;;22.83;12.63;;;;;21.10;100967.00;;;;4916148;29;20241;-71
2023/09/11 00:21:20;;;;;;;22.47;12.97;;;;;21.00;100970.00;;;;4925881;29;20294;-73
2023/09/11 00:24:07;;;;;;;15.67;12.43;;;;;21.00;100970.00;;;;4919136;29;20309;-72
2023/09/11 00:26:53;;;;;;;16.63;11.80;;;;;20.90;100952.00;;;;4918305;29;20267;-72
2023/09/11 00:29:39;;;;;;;19.23;12.53;;;;;20.90;100961.00;;;;4925310;29;20240;-71
2023/09/11 00:32:27;;;;;;;21.80;12.47;;;;;20.90;100954.00;;;;4920020;29;20315;-69
2023/09/11 00:35:13;;;;;;;17.20;12.17;;;;;20.80;100955.00;;;;4904848;29;20791;-68
2023/09/11 00:38:00;;;;;;;19.00;12.50;;;;;20.90;100948.00;;;;4925499;28;20741;-69
2023/09/11 00:40:46;;;;;;;20.30;12.17;;;;;20.80;100959.00;;;;4914141;29;20424;-72
2023/09/11 00:43:33;;;;;;;17.93;12.07;;;;;20.80;100943.00;;;;4917826;28;20629;-73
2023/09/11 00:46:19;;;;;;;15.90;12.13;;;;;20.80;100941.00;;;;4924293;29;20311;-72
2023/09/11 00:49:07;;;;;;;18.00;12.60;;;;;20.80;100945.00;;;;4927176;28;20231;-71
2023/09/11 00:51:55;;;;;;;19.67;12.73;;;;;20.80;100947.00;;;;4911989;29;20280;-73
2023/09/11 00:54:41;;;;;;;20.67;12.97;;;;;20.80;100952.00;;;;4915304;28;20614;-73
2023/09/11 00:57:28;;;;;;;17.30;12.93;;;;;20.70;100943.00;;;;4929274;29;20280;-72
2023/09/11 01:00:15;;;;;;;20.67;13.07;;;;;20.70;100939.00;;;;4917933;29;20252;-72
2023/09/11 01:03:02;;;;;;;15.93;11.77;;;;;20.60;100930.00;;;;4917222;29;20243;-73
2023/09/11 01:05:51;;;;;;;19.50;12.50;;;;;20.60;100940.00;;;;4923528;29;20740;-72
2023/09/11 01:08:37;;;;;;;21.53;12.57;;;;;20.60;100943.00;;;;4923445;29;20254;-72
2023/09/11 01:11:24;;;;;;;19.53;12.20;;;;;20.60;100937.00;;;;4914827;29;20309;-73
2023/09/11 01:14:10;;;;;;;17.37;12.10;;;;;20.60;100941.00;;;;4916670;29;20567;-73
2023/09/11 01:17:03;;;;;;;19.53;12.13;;;;;20.60;100936.00;;;;4927530;29;20826;-73
2023/09/11 01:20:13;;;;;;;19.50;12.10;;;;;20.60;100934.00;;;;4921379;28;20319;-73
2023/09/11 01:23:25;;;;;;;17.23;12.00;;;;;20.50;100932.00;;;;4912829;29;20300;-72
2023/09/11 01:26:26;;;;;;;22.53;13.33;;;;;20.50;100931.00;;;;4922472;29;20227;-72
2023/09/11 01:29:17;;;;;;;20.40;12.57;;;;;20.50;100934.00;;;;4922683;29;20241;-73
2023/09/11 01:32:07;;;;;;;16.47;12.57;;;;;20.50;100933.00;;;;4921159;29;20247;-71
2023/09/11 01:34:54;;;;;;;20.07;12.67;;;;;20.40;100930.00;;;;4916946;29;20235;-71
2023/09/11 01:37:40;;;;;;;17.67;12.40;;;;;20.40;100931.00;;;;4924356;29;20580;-72
2023/09/11 01:40:30;;;;;;;21.77;12.53;;;;;20.40;100923.00;;;;4921215;28;20780;-73
2023/09/11 01:43:17;;;;;;;20.77;12.00;;;;;20.40;100932.00;;;;4922658;29;20223;-70
2023/09/11 01:46:06;;;;;;;19.37;12.80;;;;;20.40;100932.00;;;;4915944;28;20240;-73
2023/09/11 01:48:53;;;;;;;21.67;11.90;;;;;20.30;100930.00;;;;4921679;28;20238;-71
2023/09/11 01:51:42;;;;;;;18.67;12.70;;;;;20.30;100925.00;;;;4920844;29;20605;-71
2023/09/11 01:54:29;;;;;;;22.57;12.20;;;;;20.20;100927.00;;;;4916386;29;22304;-72
2023/09/11 01:57:16;;;;;;;21.47;13.00;;;;;20.20;100920.00;;;;4920874;29;20346;-71
2023/09/11 02:00:04;;;;;;;17.73;12.33;;;;;20.20;100924.00;;;;4925915;28;20258;-72
2023/09/11 02:02:55;;;;;;;18.90;12.67;;;;;20.20;100915.00;;;;4926271;29;20283;-72
2023/09/11 02:05:41;;;;;;;17.53;11.20;;;;;20.20;100918.00;;;;4924899;29;20239;-72
2023/09/11 02:08:28;;;;;;;19.03;12.70;;;;;20.10;100919.00;;;;4919450;29;20739;-72
2023/09/11 02:11:14;;;;;;;21.70;12.90;;;;;20.10;100924.00;;;;4925752;29;20358;-73
2023/09/11 02:14:00;;;;;;;19.73;12.30;;;;;20.10;100905.00;;;;4924760;29;20380;-71
2023/09/11 02:16:47;;;;;;;22.47;13.00;;;;;20.00;100913.00;;;;4925940;28;20842;-74
2023/09/11 02:19:34;;;;;;;20.23;13.33;;;;;20.10;100911.00;;;;4912722;29;20254;-70
2023/09/11 02:22:21;;;;;;;19.77;13.27;;;;;20.00;100914.00;;;;4925921;29;20233;-72
2023/09/11 02:25:08;;;;;;;23.67;12.53;;;;;20.00;100908.00;;;;4919243;29;20235;-73
2023/09/11 02:27:54;;;;;;;20.87;12.80;;;;;19.90;100905.00;;;;4924133;29;20274;-71
2023/09/11 02:30:41;;;;;;;22.03;13.13;;;;;20.00;100909.00;;;;4925447;28;20231;-71
2023/09/11 02:33:27;;;;;;;24.17;13.43;;;;;19.90;100907.00;;;;4923641;28;20877;-70
2023/09/11 02:36:14;;;;;;;19.53;13.30;;;;;19.90;100902.00;;;;4923748;29;20274;-71
2023/09/11 02:39:00;;;;;;;20.70;13.13;;;;;19.90;100904.00;;;;4921455;29;20911;-71
2023/09/11 02:41:47;;;;;;;24.53;13.80;;;;;19.90;100902.00;;;;4914423;29;20246;-71
2023/09/11 02:44:33;;;;;;;22.33;13.27;;;;;19.90;100899.00;;;;4919705;29;20305;-71
2023/09/11 02:47:20;;;;;;;22.40;12.43;;;;;19.90;100904.00;;;;4922206;28;20222;-70
2023/09/11 02:50:07;;;;;;;24.27;12.77;;;;;19.90;100894.00;;;;4925763;29;20743;-73
2023/09/11 02:52:55;;;;;;;20.57;12.03;;;;;19.90;100899.00;;;;4920350;28;20305;-71
2023/09/11 02:55:41;;;;;;;20.87;13.13;;;;;19.80;100900.00;;;;4915240;29;20228;-71
2023/09/11 02:58:29;;;;;;;21.03;13.03;;;;;19.80;100895.00;;;;4925899;29;20236;-71
2023/09/11 03:01:15;;;;;;;21.77;13.10;;;;;19.80;100893.00;;;;4911628;29;20242;-71
2023/09/11 03:04:02;;;;;;;20.90;13.90;;;;;19.80;100893.00;;;;4921285;28;20238;-70
2023/09/11 03:06:48;;;;;;;21.13;12.87;;;;;19.70;100889.00;;;;4924328;29;20232;-72
2023/09/11 03:09:36;;;;;;;20.87;12.93;;;;;19.70;100882.00;;;;4916958;28;20248;-70
2023/09/11 03:12:22;;;;;;;21.17;13.03;;;;;19.70;100879.00;;;;4918872;29;20241;-72
2023/09/11 03:15:09;;;;;;;22.13;13.83;;;;;19.70;100878.00;;;;4926088;29;20230;-70
2023/09/11 03:17:56;;;;;;;25.33;13.40;;;;;19.60;100884.00;;;;4916891;29;20828;-72
2023/09/11 03:20:42;;;;;;;17.97;12.40;;;;;19.60;100880.00;;;;4912003;29;20321;-72
2023/09/11 03:23:28;;;;;;;23.00;13.33;;;;;19.60;100877.00;;;;4925111;29;20286;-71
2023/09/11 03:26:17;;;;;;;18.43;12.43;;;;;19.60;100879.00;;;;4916818;29;20607;-72
2023/09/11 03:29:03;;;;;;;21.03;13.43;;;;;19.60;100873.00;;;;4924315;28;20755;-72
2023/09/11 03:31:49;;;;;;;20.93;12.77;;;;;19.60;100878.00;;;;4912520;29;20805;-72
2023/09/11 03:34:36;;;;;;;21.20;12.93;;;;;19.50;100878.00;;;;4918923;29;20232;-72
2023/09/11 03:37:22;;;;;;;24.83;13.43;;;;;19.50;100871.00;;;;4922602;28;20240;-72
2023/09/11 03:40:13;;;;;;;20.77;13.33;;;;;19.50;100878.00;;;;4921129;29;20226;-72
2023/09/11 03:43:00;;;;;;;23.33;13.70;;;;;19.50;100874.00;;;;4914880;29;20231;-72
2023/09/11 03:45:47;;;;;;;19.93;13.30;;;;;19.50;100871.00;;;;4916415;29;20234;-72
2023/09/11 03:48:35;;;;;;;21.83;13.77;;;;;19.40;100868.00;;;;4911060;29;20244;-70
2023/09/11 03:51:22;;;;;;;20.43;13.27;;;;;19.40;100861.00;;;;4928387;28;20244;-72
2023/09/11 03:54:08;;;;;;;22.07;13.10;;;;;19.40;100855.00;;;;4917707;29;20233;-72
2023/09/11 03:56:55;;;;;;;19.87;13.67;;;;;19.40;100864.00;;;;4922476;29;20230;-71
2023/09/11 03:59:42;;;;;;;18.43;13.67;;;;;19.30;100852.00;;;;4913778;29;20233;-72
2023/09/11 04:02:29;;;;;;;20.37;13.57;;;;;19.40;100847.00;;;;4918046;29;20763;-73
2023/09/11 04:05:15;;;;;;;27.63;14.83;;;;;19.40;100846.00;;;;4914065;29;20712;-74
2023/09/11 04:08:01;;;;;;;21.80;13.50;;;;;19.30;100847.00;;;;4919788;29;20230;-73
2023/09/11 04:10:48;;;;;;;20.63;13.63;;;;;19.30;100844.00;;;;4920740;29;20337;-72
2023/09/11 04:13:34;;;;;;;23.23;13.60;;;;;19.30;100833.00;;;;4917939;29;20615;-72
2023/09/11 04:16:22;;;;;;;23.00;14.60;;;;;19.30;100836.00;;;;4923754;28;20242;-72
2023/09/11 04:19:09;;;;;;;24.80;13.90;;;;;19.20;100838.00;;;;4923986;28;20276;-72
2023/09/11 04:21:55;;;;;;;21.63;14.27;;;;;19.20;100834.00;;;;4920392;29;20703;-72
2023/09/11 04:24:41;;;;;;;24.37;14.43;;;;;19.20;100835.00;;;;4923072;29;20261;-72
2023/09/11 04:27:27;;;;;;;22.60;14.00;;;;;19.20;100828.00;;;;4912708;28;20369;-72
2023/09/11 04:30:14;;;;;;;20.10;14.37;;;;;19.20;100830.00;;;;4926341;29;20902;-72
2023/09/11 04:33:02;;;;;;;23.20;14.33;;;;;19.20;100828.00;;;;4926492;29;20287;-72
2023/09/11 04:35:51;;;;;;;20.70;13.43;;;;;19.20;100826.00;;;;4918427;29;20241;-72
2023/09/11 04:38:37;;;;;;;26.70;14.40;;;;;19.10;100827.00;;;;4921371;28;20237;-69
2023/09/11 04:41:24;;;;;;;21.40;14.23;;;;;19.20;100827.00;;;;4925577;28;20346;-72
2023/09/11 04:44:10;;;;;;;19.33;13.57;;;;;19.10;100831.00;;;;4927319;29;20242;-72
2023/09/11 04:46:57;;;;;;;18.70;13.57;;;;;19.10;100828.00;;;;4914226;29;20234;-72
2023/09/11 04:49:45;;;;;;;22.33;14.17;;;;;19.10;100834.00;;;;4922076;29;20713;-72
2023/09/11 04:52:31;;;;;;;24.00;15.07;;;;;19.10;100832.00;;;;4924350;28;20290;-73
2023/09/11 04:55:18;;;;;;;21.37;14.37;;;;;19.10;100830.00;;;;4927493;29;20241;-71
2023/09/11 04:58:05;;;;;;;25.10;14.50;;;;;19.10;100830.00;;;;4925031;28;20347;-72
2023/09/11 05:00:53;;;;;;;20.43;14.93;;;;;19.10;100829.00;;;;4917467;29;20238;-72
2023/09/11 05:03:39;;;;;;;23.17;15.07;;;;;19.10;100824.00;;;;4917985;29;20242;-72
2023/09/11 05:06:30;;;;;;;28.40;15.47;;;;;19.10;100825.00;;;;4926609;28;20235;-72
2023/09/11 05:09:16;;;;;;;23.77;15.73;;;;;19.00;100825.00;;;;4920155;29;20609;-72
2023/09/11 05:12:03;;;;;;;24.90;15.57;;;;;19.10;100835.00;;;;4929179;28;20248;-71
2023/09/11 05:14:50;;;;;;;21.73;15.60;;;;;19.10;100830.00;;;;4920597;28;20253;-72
2023/09/11 05:17:36;;;;;;;25.50;15.53;;;;;19.10;100829.00;;;;4920624;29;20233;-71
2023/09/11 05:20:23;;;;;;;26.30;16.33;;;;;19.10;100827.00;;;;4921447;28;20265;-70
2023/09/11 05:23:10;;;;;;;22.20;15.33;;;;;19.10;100824.00;;;;4924257;29;20240;-71
2023/09/11 05:25:57;;;;;;;19.73;15.00;;;;;19.10;100835.00;;;;4916259;29;20803;-72
2023/09/11 05:28:43;;;;;;;21.87;15.40;;;;;19.10;100829.00;;;;4912967;29;20652;-71
2023/09/11 05:31:29;;;;;;;23.70;14.93;;;;;19.10;100830.00;;;;4920685;29;20261;-70
2023/09/11 05:34:16;;;;;;;22.03;14.33;;;;;19.10;100823.00;;;;4924625;29;20236;-71
2023/09/11 05:37:02;;;;;;;22.00;15.17;;;;;19.20;100826.00;;;;4916981;28;20706;-72
2023/09/11 05:39:50;;;;;;;25.13;15.37;;;;;19.20;100820.00;;;;4918956;29;20228;-72
2023/09/11 05:42:36;;;;;;;24.07;14.00;;;;;19.20;100824.00;;;;4913569;29;20245;-72
2023/09/11 05:45:23;;;;;;;24.23;15.63;;;;;19.20;100819.00;;;;4925113;29;20236;-69
2023/09/11 05:48:11;;;;;;;24.73;14.97;;;;;19.30;100822.00;;;;4927217;29;20296;-72
2023/09/11 05:50:58;;;;;;;28.00;15.40;;;;;19.30;100827.00;;;;4919897;28;20260;-72
2023/09/11 05:53:44;;;;;;;24.50;15.80;;;;;19.30;100831.00;;;;4921646;29;20277;-73
2023/09/11 05:56:32;;;;;;;25.70;15.67;;;;;19.30;100826.00;;;;4929883;29;20230;-72
2023/09/11 05:59:19;;;;;;;24.03;16.43;;;;;19.40;100832.00;;;;4918328;29;20237;-72
2023/09/11 06:02:06;;;;;;;23.43;15.63;;;;;19.40;100831.00;;;;4924290;29;20250;-71
2023/09/11 06:04:52;;;;;;;25.03;15.83;;;;;19.50;100831.00;;;;4921817;28;20239;-71
2023/09/11 06:07:38;;;;;;;24.23;16.57;;;;;19.50;100834.00;;;;4918952;29;20233;-71
2023/09/11 06:10:25;;;;;;;22.77;16.00;;;;;19.60;100845.00;;;;4919226;29;20229;-72
2023/09/11 06:13:13;;;;;;;25.60;16.83;;;;;19.70;100832.00;;;;4926367;29;20236;-71
2023/09/11 06:15:59;;;;;;;28.30;16.73;;;;;19.70;100843.00;;;;4914134;29;20233;-72
2023/09/11 06:18:46;;;;;;;23.33;16.37;;;;;19.80;100845.00;;;;4925518;29;20233;-71
2023/09/11 06:21:32;;;;;;;25.63;16.53;;;;;19.80;100837.00;;;;4922236;29;21039;-69
2023/09/11 06:24:18;;;;;;;23.97;17.37;;;;;19.80;100845.00;;;;4925992;28;20235;-69
2023/09/11 06:27:07;;;;;;;22.97;16.87;;;;;19.90;100846.00;;;;4921492;29;20879;-70
2023/09/11 06:29:55;;;;;;;24.17;17.03;;;;;20.00;100845.00;;;;4922513;29;20303;-71
2023/09/11 06:32:41;;;;;;;31.77;18.47;;;;;20.00;100848.00;;;;4917650;29;20447;-70
2023/09/11 06:35:28;;;;;;;29.47;19.23;;;;;20.10;100843.00;;;;4922788;29;20233;-68
2023/09/11 06:38:14;;;;;;;31.03;19.00;;;;;20.10;100836.00;;;;4926133;28;20359;-71
2023/09/11 06:41:03;;;;;;;32.07;20.00;;;;;20.20;100845.00;;;;4920893;29;20242;-70
2023/09/11 06:43:49;;;;;;;29.63;19.50;;;;;20.30;100838.00;;;;4920845;29;20663;-69
2023/09/11 06:46:37;;;;;;;32.50;20.00;;;;;20.40;100844.00;;;;4927388;29;20264;-70
2023/09/11 06:49:24;;;;;;;28.47;19.23;;;;;20.40;100844.00;;;;4929444;28;20359;-70
2023/09/11 06:52:10;;;;;;;29.87;19.27;;;;;20.50;100847.00;;;;4923905;28;20284;-69
2023/09/11 06:54:56;;;;;;;29.70;17.30;;;;;20.60;100853.00;;;;4922418;29;20238;-69
2023/09/11 06:57:55;;;;;;;27.73;17.33;;;;;20.60;100839.00;;;;4924095;29;20238;-69
2023/09/11 07:00:42;;;;;;;23.07;16.33;;;;;20.70;100846.00;;;;4925963;29;20367;-70
2023/09/11 07:03:30;;;;;;;29.03;18.00;;;;;20.80;100835.00;;;;4924746;28;20363;-70
2023/09/11 07:06:17;;;;;;;29.43;19.60;;;;;20.90;100846.00;;;;4915214;29;20236;-74
2023/09/11 07:09:05;;;;;;;26.97;18.30;;;;;21.00;100835.00;;;;4915376;29;20312;-72
2023/09/11 07:11:51;;;;;;;22.47;16.60;;;;;21.00;100837.00;;;;4919496;29;20369;-70
2023/09/11 07:14:37;;;;;;;25.40;16.97;;;;;21.20;100846.00;;;;4909911;29;20248;-72
2023/09/11 07:17:24;;;;;;;25.77;16.27;;;;;21.20;100847.00;;;;4914970;28;20752;-69
2023/09/11 07:20:13;;;;;;;28.70;16.30;;;;;21.40;100838.00;;;;4915159;29;20233;-69
2023/09/11 07:22:59;;;;;;;22.50;15.83;;;;;21.40;100837.00;;;;4917773;29;20243;-72
2023/09/11 07:25:46;;;;;;;25.20;16.23;;;;;21.50;100844.00;;;;4916194;29;20882;-72
2023/09/11 07:28:34;;;;;;;27.93;17.47;;;;;21.70;100845.00;;;;4913361;29;20241;-73
2023/09/11 07:31:23;;;;;;;21.93;15.00;;;;;21.80;100832.00;;;;4922163;29;20798;-72
2023/09/11 07:34:09;;;;;;;26.67;14.83;;;;;21.90;100837.00;;;;4922865;29;20253;-71
2023/09/11 07:36:57;;;;;;;25.80;15.33;;;;;22.00;100828.00;;;;4916530;29;20244;-72
2023/09/11 07:39:43;;;;;;;30.30;15.43;;;;;22.10;100834.00;;;;4921321;29;20292;-73
2023/09/11 07:42:30;;;;;;;22.67;14.30;;;;;22.20;100839.00;;;;4928245;29;20315;-72
2023/09/11 07:45:16;;;;;;;20.83;13.70;;;;;22.20;100833.00;;;;4927513;29;20227;-72
2023/09/11 07:48:03;;;;;;;21.80;11.70;;;;;22.30;100827.00;;;;4922757;29;20313;-72
2023/09/11 07:50:56;;;;;;;16.67;11.20;;;;;22.50;100831.00;;;;4915816;29;20257;-71
2023/09/11 07:53:44;;;;;;;18.33;11.60;;;;;22.50;100831.00;;;;4924014;29;21274;-67
2023/09/11 07:56:30;;;;;;;16.50;10.43;;;;;22.60;100823.00;;;;4918348;28;20790;-70
2023/09/11 07:59:16;;;;;;;22.33;10.73;;;;;22.70;100822.00;;;;4920552;29;20737;-71
2023/09/11 08:02:03;;;;;;;19.07;10.83;;;;;22.80;100816.00;;;;4923128;29;20244;-71
2023/09/11 08:04:49;;;;;;;20.13;10.30;;;;;22.90;100823.00;;;;4919969;29;20586;-73
2023/09/11 08:07:35;;;;;;;22.47;11.00;;;;;23.00;100816.00;;;;4923459;28;20284;-74
2023/09/11 08:10:23;;;;;;;23.97;10.13;;;;;23.10;100813.00;;;;4927425;29;20907;-72
2023/09/11 08:13:09;;;;;;;21.87;10.30;;;;;23.20;100816.00;;;;4919201;29;20228;-74
2023/09/11 08:15:55;;;;;;;19.57;9.80;;;;;23.30;100826.00;;;;4928184;29;20229;-73
2023/09/11 08:18:42;;;;;;;14.67;9.27;;;;;23.40;100827.00;;;;4921739;29;20223;-74
2023/09/11 08:21:29;;;;;;;19.20;10.23;;;;;23.50;100828.00;;;;4927100;29;20312;-71
2023/09/11 08:24:15;;;;;;;17.67;9.77;;;;;23.60;100830.00;;;;4925275;29;20256;-71
2023/09/11 08:27:03;;;;;;;16.93;9.83;;;;;23.60;100830.00;;;;4928312;29;20275;-71
2023/09/11 08:29:49;;;;;;;20.40;9.70;;;;;23.70;100818.00;;;;4922833;29;20693;-70
2023/09/11 08:32:35;;;;;;;21.40;9.63;;;;;24.00;100823.00;;;;4919293;29;20249;-70
2023/09/11 08:35:22;;;;;;;13.10;9.47;;;;;24.10;100809.00;;;;4928522;28;20284;-70
2023/09/11 08:38:08;;;;;;;22.00;9.73;;;;;24.30;100810.00;;;;4920255;29;20336;-72
2023/09/11 08:40:55;;;;;;;17.93;9.30;;;;;24.40;100808.00;;;;4927667;29;20241;-71
2023/09/11 08:43:44;;;;;;;13.80;9.20;;;;;24.60;100813.00;;;;4935985;28;20328;-74
2023/09/11 08:46:32;;;;;;;12.67;8.03;;;;;24.70;100817.00;;;;4929288;29;20309;-70
2023/09/11 08:49:24;;;;;;;13.27;8.73;;;;;24.90;100811.00;;;;4922605;29;20232;-70
2023/09/11 08:52:14;;;;;;;18.77;8.53;;;;;25.00;100807.00;;;;4919611;29;20754;-72
2023/09/11 08:55:04;;;;;;;14.03;8.60;;;;;25.10;100818.00;;;;4927872;29;20221;-71
2023/09/11 08:57:52;;;;;;;14.10;8.50;;;;;25.30;100823.00;;;;4922485;29;20233;-69
2023/09/11 09:00:39;;;;;;;14.48;7.90;;;;;25.40;100824.00;;;;4881808;29;1073190;-71
2023/09/11 09:03:27;;;;;;;13.88;8.10;;;;;25.50;100820.00;;;;4921665;29;20232;-70
2023/09/11 09:06:14;;;;;;;12.67;7.77;;;;;25.60;100819.00;;;;4917979;29;20245;-70
2023/09/11 09:09:01;;;;;;;14.68;7.60;;;;;25.70;100812.00;;;;4915901;29;20253;-68
2023/09/11 09:11:49;;;;;;;12.40;7.43;;;;;25.90;100809.00;;;;4922360;29;20240;-70
2023/09/11 09:14:38;;;;;;;16.52;7.88;;;;;25.90;100810.00;;;;4924114;29;20241;-71
2023/09/11 09:17:26;;;;;;;14.93;7.03;;;;;26.10;100806.00;;;;4923839;29;20304;-72
2023/09/11 09:20:13;;;;;;;12.82;7.35;;;;;26.20;100803.00;;;;4920149;29;20230;-71
2023/09/11 09:23:02;;;;;;;15.10;7.90;;;;;26.20;100804.00;;;;4918757;28;20778;-72
2023/09/11 09:25:48;;;;;;;12.35;7.22;;;;;26.30;100806.00;;;;4916076;29;20233;-71
2023/09/11 09:28:37;;;;;;;12.00;7.32;;;;;26.40;100808.00;;;;4918213;29;20241;-71
2023/09/11 09:31:25;;;;;;;12.18;7.10;;;;;26.60;100799.00;;;;4918339;29;20230;-72
2023/09/11 09:34:14;;;;;;;18.80;7.60;;;;;26.70;100795.00;;;;4920980;28;20253;-71
2023/09/11 09:37:01;;;;;;;13.80;7.68;;;;;26.80;100796.00;;;;4924046;28;20721;-68
2023/09/11 09:39:49;;;;;;;16.65;8.32;;;;;26.80;100795.00;;;;4920317;29;20233;-71
2023/09/11 09:42:44;;;;;;;17.92;7.68;;;;;26.90;100798.00;;;;4924576;29;20241;-67
2023/09/11 09:45:33;;;;;;;17.67;7.80;;;;;27.00;100797.00;;;;4922154;29;20281;-69
2023/09/11 09:48:21;;;;;;;11.88;7.70;;;;;27.00;100802.00;;;;4922476;29;20230;-70
2023/09/11 09:51:09;;;;;;;17.17;7.65;;;;;27.10;100796.00;;;;4925010;28;21022;-70
2023/09/11 09:53:56;;;;;;;15.27;7.82;;;;;27.20;100792.00;;;;4919578;29;20236;-70
2023/09/11 09:56:42;;;;;;;19.60;7.95;;;;;27.30;100788.00;;;;4915951;28;20230;-70
2023/09/11 09:59:29;;;;;;;11.77;7.35;;;;;27.50;100794.00;;;;4917665;29;20992;-70
2023/09/11 10:02:15;;;;;;;17.67;7.50;;;;;27.50;100797.00;;;;4916351;29;20770;-70
2023/09/11 10:05:03;;;;;;;15.50;7.88;;;;;27.60;100782.00;;;;4923126;29;20722;-69
2023/09/11 10:07:51;;;;;;;17.98;7.93;;;;;27.80;100787.00;;;;4917911;29;20703;-71
2023/09/11 10:10:37;;;;;;;17.13;7.57;;;;;27.90;100781.00;;;;4915658;29;20490;-70
2023/09/11 10:13:27;;;;;;;14.20;7.68;;;;;28.00;100788.00;;;;4917592;29;20345;-71
2023/09/11 10:16:14;;;;;;;13.65;6.80;;;;;28.10;100785.00;;;;4925307;28;20422;-70
2023/09/11 10:19:02;;;;;;;17.55;8.25;;;;;28.20;100782.00;;;;4927689;29;20232;-71
2023/09/11 10:21:48;;;;;;;24.45;7.28;;;;;28.30;100780.00;;;;4919775;28;20385;-70
2023/09/11 10:24:36;;;;;;;14.57;7.18;;;;;28.30;100780.00;;;;4924844;29;20738;-72
2023/09/11 10:27:22;;;;;;;31.77;11.77;;;;;28.50;100774.00;;;;4921131;29;20237;-72
2023/09/11 10:30:12;;;;;;;20.95;10.00;;;;;28.60;100777.00;;;;4917922;29;20237;-71
2023/09/11 10:33:02;;;;;;;13.95;6.90;;;;;28.70;100774.00;;;;4925796;29;20245;-70
2023/09/11 10:35:56;;;;;;;13.90;6.65;;;;;28.80;100772.00;;;;4926750;29;20248;-70
2023/09/11 10:38:44;;;;;;;16.38;6.95;;;;;28.90;100757.00;;;;4927655;28;20248;-68
2023/09/11 10:41:33;;;;;;;12.30;6.85;;;;;29.00;100754.00;;;;4926369;29;20233;-71
2023/09/11 10:44:20;;;;;;;13.45;6.43;;;;;29.20;100756.00;;;;4928520;29;20292;-70
2023/09/11 10:47:06;;;;;;;12.88;6.47;;;;;29.30;100758.00;;;;4915806;29;20232;-71
2023/09/11 10:49:57;;;;;;;12.98;6.40;;;;;29.40;100761.00;;;;4924654;28;20237;-72
2023/09/11 10:52:45;;;;;;;13.95;6.40;;;;;29.50;100768.00;;;;4919954;28;20245;-70
2023/09/11 10:55:33;;;;;;;18.35;6.32;;;;;29.60;100754.00;;;;4913260;29;20245;-71
2023/09/11 10:58:23;;;;;;;15.27;6.40;;;;;29.80;100754.00;;;;4917832;28;20612;-70
2023/09/11 11:01:14;;;;;;;11.02;6.00;;;;;29.90;100757.00;;;;4916097;29;20974;-71
2023/09/11 11:04:03;;;;;;;12.18;6.50;;;;;30.00;100754.00;;;;4924996;29;20264;-72
2023/09/11 11:06:50;;;;;;;18.42;6.50;;;;;30.00;100751.00;;;;4915722;29;20237;-71
2023/09/11 11:09:40;;;;;;;14.70;6.50;;;;;30.10;100753.00;;;;4927702;29;20232;-70
2023/09/11 11:12:34;;;;;;;12.13;6.50;;;;;30.30;100757.00;;;;4918293;29;20245;-72
2023/09/11 11:15:24;;;;;;;14.90;6.68;;;;;30.50;100753.00;;;;4922866;29;20232;-73
2023/09/11 11:18:12;;;;;;;17.00;6.05;;;;;30.60;100762.00;;;;4925969;29;20380;-69
2023/09/11 11:21:04;;;;;;;13.75;6.45;;;;;30.70;100760.00;;;;4923911;29;20240;-72
2023/09/11 11:23:55;;;;;;;10.68;6.03;;;;;30.70;100761.00;;;;4921681;29;20368;-72
2023/09/11 11:26:42;;;;;;;16.08;6.25;;;;;30.80;100763.00;;;;4921827;29;20777;-71
2023/09/11 11:29:30;;;;;;;18.40;6.20;;;;;30.80;100760.00;;;;4917586;29;20244;-73
2023/09/11 11:32:18;;;;;;;10.90;6.10;;;;;30.80;100758.00;;;;4917743;29;20233;-72
2023/09/11 11:35:07;;;;;;;12.13;6.20;;;;;30.80;100764.00;;;;4918413;29;20321;-73
2023/09/11 11:37:55;;;;;;;13.10;6.40;;;;;31.00;100754.00;;;;4916164;28;20329;-72
2023/09/11 11:40:42;;;;;;;11.00;6.30;;;;;31.10;100759.00;;;;4916208;29;20241;-71
2023/09/11 11:43:28;;;;;;;14.43;6.25;;;;;31.10;100757.00;;;;4916566;29;20372;-71
2023/09/11 11:46:16;;;;;;;8.75;6.20;;;;;31.10;100754.00;;;;4925154;29;20455;-73
2023/09/11 11:49:03;;;;;;;11.93;6.30;;;;;31.20;100755.00;;;;4932663;28;20232;-69
2023/09/11 11:51:50;;;;;;;11.32;6.22;;;;;31.10;100754.00;;;;4916807;28;20233;-71
2023/09/11 11:54:36;;;;;;;13.15;5.93;;;;;31.10;100754.00;;;;4919076;29;20288;-72
2023/09/11 11:57:24;;;;;;;13.13;6.22;;;;;31.20;100754.00;;;;4918574;29;20964;-72
2023/09/11 12:00:13;;;;;;;10.50;6.43;;;;;31.30;100747.00;;;;4915766;29;20241;-71
2023/09/11 12:03:04;;;;;;;14.95;6.60;;;;;31.40;100741.00;;;;4915859;29;20743;-72
2023/09/11 12:05:52;;;;;;;8.57;6.60;;;;;31.40;100747.00;;;;4917719;28;20248;-71
2023/09/11 12:08:38;;;;;;;9.07;6.47;;;;;31.50;100754.00;;;;4924221;29;20675;-71
2023/09/11 12:11:26;;;;;;;14.02;6.82;;;;;31.50;100762.00;;;;4916509;29;20896;-70
2023/09/11 12:14:13;;;;;;;13.68;6.50;;;;;31.50;100750.00;;;;4926926;29;20241;-72
2023/09/11 12:17:00;;;;;;;13.50;6.88;;;;;31.60;100757.00;;;;4926094;29;20612;-70
2023/09/11 12:19:46;;;;;;;16.73;7.35;;;;;31.70;100760.00;;;;4917419;29;20714;-72
2023/09/11 12:22:33;;;;;;;13.07;7.00;;;;;31.70;100767.00;;;;4922910;29;20723;-72
2023/09/11 12:25:20;;;;;;;17.77;7.40;;;;;31.70;100761.00;;;;4918042;28;20284;-72
2023/09/11 12:28:06;;;;;;;17.60;7.93;;;;;31.80;100756.00;;;;4917264;29;20265;-71
2023/09/11 12:30:53;;;;;;;13.05;7.47;;;;;31.80;100759.00;;;;4921767;29;20722;-71
2023/09/11 12:33:39;;;;;;;13.23;7.63;;;;;31.70;100754.00;;;;4919690;29;20231;-71
2023/09/11 12:36:26;;;;;;;17.17;7.82;;;;;31.70;100752.00;;;;4904768;29;20230;-73
2023/09/11 12:39:13;;;;;;;15.80;7.40;;;;;31.80;100749.00;;;;4915759;29;20326;-72
2023/09/11 12:42:00;;;;;;;16.00;7.53;;;;;31.90;100750.00;;;;4917006;29;20237;-73
2023/09/11 12:44:47;;;;;;;20.80;7.75;;;;;32.00;100749.00;;;;4918708;29;20237;-73
2023/09/11 12:47:36;;;;;;;13.38;7.55;;;;;32.10;100762.00;;;;4922398;29;20224;-73
2023/09/11 12:50:22;;;;;;;15.40;8.00;;;;;32.20;100756.00;;;;4927839;28;20229;-73
2023/09/11 12:53:10;;;;;;;18.50;7.97;;;;;32.30;100749.00;;;;4924145;29;20353;-72
2023/09/11 12:55:58;;;;;;;11.80;7.35;;;;;32.30;100763.00;;;;4919279;28;20244;-73
2023/09/11 12:58:44;;;;;;;17.10;8.00;;;;;32.30;100753.00;;;;4910913;29;20234;-73
2023/09/11 13:01:32;;;;;;;12.30;7.88;;;;;32.30;100757.00;;;;4926739;29;20289;-73
2023/09/11 13:04:21;;;;;;;14.38;7.95;;;;;32.40;100758.00;;;;4922282;28;20240;-73
2023/09/11 13:07:07;;;;;;;13.38;7.88;;;;;32.50;100754.00;;;;4927994;29;20244;-72
2023/09/11 13:09:54;;;;;;;18.73;8.45;;;;;32.40;100753.00;;;;4919595;29;20233;-71
2023/09/11 13:12:41;;;;;;;13.63;7.80;;;;;32.40;100763.00;;;;4919641;29;20241;-72
2023/09/11 13:15:28;;;;;;;15.82;8.38;;;;;32.50;100761.00;;;;4914261;29;20251;-70
2023/09/11 13:18:14;;;;;;;25.73;8.43;;;;;32.70;100755.00;;;;4926307;29;20228;-73
2023/09/11 13:21:00;;;;;;;15.80;8.25;;;;;32.70;100751.00;;;;4928091;29;20276;-70
2023/09/11 13:23:47;;;;;;;15.13;7.72;;;;;32.70;100755.00;;;;4922342;29;20232;-70
2023/09/11 13:26:33;;;;;;;24.13;8.38;;;;;32.80;100756.00;;;;4922062;29;20381;-72
2023/09/11 13:29:21;;;;;;;15.32;8.23;;;;;32.90;100762.00;;;;4925682;28;20762;-73
2023/09/11 13:32:07;;;;;;;16.23;7.72;;;;;32.90;100758.00;;;;4915655;29;20245;-72